Dawson Community Airport
KGDV : now visible

Airfield :











YOU CAN JOIN US ON...

 
LOGIN :

Register | Disclaimer

   EN    FR    IT 

 









Legend :    VFR   Marginal VFR   IFR   Intensive IFR   Very Intensive IFR
Visi :
Ceiling :
>= 8 km
>= 3000ft
5 to 8 km
1000 to 3000 ft
1500m to 5 km
500 to 1000 ft
800 to 1500m
200 to 500 ft
< 800m
< 200 ft
Symbols :   Thunderstorms  Fog  Heavy snow  Heavy precipitations  Wind > 20 kt






- Airport Elevation : 2458 ft


KGDV - Dawson Community

CURRENT METAR :
  • 220256Z AUTO 13008KT 3SM -SN BR BKN003 OVC007 M01/M01 A3003 RMK AO2 CIG 002V005 SLP199 P0000 60000 T10061006 50005 FZRANO

EXPIRED METARs :
  • 220220Z AUTO 13007KT 3SM -SN BR OVC007 M01/M01 A3004 RMK AO2 CIG 005V011 P0000 FZRANO
  • 220156Z AUTO 12007KT 2 1/2SM -SN BR OVC007 M01/M01 A3003 RMK AO2 VIS 1 1/2V5 CIG 004V010 SLP200 P0000 T10061006 FZRANO
  • 220137Z AUTO 11009KT 5SM -SN BR OVC005 M01/M01 A3003 RMK AO2 CIG 002V009 P0000 FZRANO
  • 220114Z AUTO 10007KT 5SM -SN BR OVC003 M01/M01 A3002 RMK AO2 CIG 003V006 P0000 FZRANO
  • 220056Z AUTO 10010KT 2 1/2SM -SN BR OVC005 M01/M01 A3001 RMK AO2 CIG 003V008 SLP194 P0000 T10061006 FZRANO

TAF KGDV
Valid from the 22 at 02:00 until the 23 at 00:00 UTC


220156Z 2202/2224 09009KT 6SM -SN OVC008
TEMPO 2203/2206 3SM -SN OVC005
FM220600 01015G20KT 2SM -SN OVC010
FM221200 34012KT 1SM -SN OVC009
FM221800 33013KT P6SM VCSH OVC025
PROB30 2218/2221 3SM -SN BR OVC015
KZLC FIR / North America



MET'MAP, your aeronautical weather chart ! - Copyright ORBIFLY December 2007 - Disclaimer

ORBIFLY MET'MAP TEAM :

Programming & Development : Alexandra Zaïnal
Concept & original design : Baudouin d'Aumeries
Assistance for programming : Marc-Olivier Méhu
Technical & hardware support : Manuel Goepfert

Contact : metmap@orbifly.com




SOURCES & CREDITS :

   NOAA       Earth
Advisory